Time;durP1;ratioP1;P1;durP2;ratioP2;P2;SDS_P1;SDS_P2;PMS_P1;PMS_P2;Temp;Humidity;BMP_temperature;BMP_pressure;BME280_temperature;BME280_humidity;BME280_pressure;Samples;Min_cycle;Max_cycle;Signal;HPM_P1;HPM_P2
2021/10/30 00:03:03;;;;;;;51.77;20.67;;;;;;;;;;6183672;23;20175;-90
2021/10/30 00:06:08;;;;;;;51.13;20.97;;;;;;;;;;6184333;23;20207;-92
2021/10/30 00:09:15;;;;;;;51.70;19.60;;;;;;;;;;6185240;23;20200;-90
2021/10/30 00:12:20;;;;;;;72.50;19.93;;;;;;;;;;6183693;23;20269;-89
2021/10/30 00:15:54;;;;;;;54.80;18.43;;;;;;;;;;6182792;23;20168;-91
2021/10/30 00:19:00;;;;;;;41.03;17.50;;;;;;;;;;6183944;23;20190;-90
2021/10/30 00:22:05;;;;;;;66.37;19.63;;;;;;;;;;6183318;23;20206;-90
2021/10/30 00:25:11;;;;;;;119.03;19.33;;;;;;;;;;6185324;23;20168;-91
2021/10/30 00:28:16;;;;;;;42.33;19.23;;;;;;;;;;6183438;23;20163;-92
2021/10/30 00:31:21;;;;;;;45.17;18.07;;;;;;;;;;6181804;23;20163;-90
2021/10/30 00:34:28;;;;;;;42.43;19.00;;;;;;;;;;6182390;23;20179;-90
2021/10/30 00:37:33;;;;;;;52.83;18.50;;;;;;;;;;6182316;23;20199;-91
2021/10/30 00:40:39;;;;;;;42.87;17.93;;;;;;;;;;6167063;23;20182;-90
2021/10/30 00:43:44;;;;;;;49.07;17.00;;;;;;;;;;6181651;23;20175;-91
2021/10/30 00:46:50;;;;;;;43.17;17.43;;;;;;;;;;6183458;23;20219;-91
2021/10/30 00:49:56;;;;;;;39.77;17.23;;;;;;;;;;6187970;23;20221;-90
2021/10/30 00:53:02;;;;;;;35.90;17.93;;;;;;;;;;6182678;23;20222;-90
2021/10/30 00:56:09;;;;;;;35.57;16.40;;;;;;;;;;6183265;23;20195;-90
2021/10/30 00:59:15;;;;;;;49.33;19.23;;;;;;;;;;6184187;23;20260;-89
2021/10/30 01:02:21;;;;;;;49.13;20.53;;;;;;;;;;6184153;23;20175;-91
2021/10/30 01:05:28;;;;;;;58.60;20.90;;;;;;;;;;6181983;23;20288;-89
2021/10/30 01:08:33;;;;;;;62.80;20.70;;;;;;;;;;6183212;23;20198;-90
2021/10/30 01:11:39;;;;;;;114.57;20.80;;;;;;;;;;6182367;23;20225;-91
2021/10/30 01:14:45;;;;;;;62.67;19.33;;;;;;;;;;6180851;23;20159;-88
2021/10/30 01:17:50;;;;;;;81.73;20.40;;;;;;;;;;6182955;23;20243;-90
2021/10/30 01:20:58;;;;;;;85.63;18.47;;;;;;;;;;6183115;23;20171;-88
2021/10/30 01:24:04;;;;;;;65.07;17.70;;;;;;;;;;6165385;23;20163;-90
2021/10/30 01:27:09;;;;;;;50.20;18.97;;;;;;;;;;6182651;23;20196;-89
2021/10/30 01:30:16;;;;;;;67.80;19.00;;;;;;;;;;6182482;23;20692;-91
2021/10/30 01:33:21;;;;;;;47.97;17.20;;;;;;;;;;6182869;23;20280;-90
2021/10/30 01:36:28;;;;;;;46.30;16.97;;;;;;;;;;6183144;23;20207;-91
2021/10/30 01:39:34;;;;;;;38.07;15.80;;;;;;;;;;6183683;23;20172;-90
2021/10/30 01:42:39;;;;;;;76.33;16.40;;;;;;;;;;6183275;23;20659;-90
2021/10/30 01:45:45;;;;;;;49.23;16.57;;;;;;;;;;6183664;23;20248;-91
2021/10/30 01:48:51;;;;;;;72.47;16.90;;;;;;;;;;6183608;23;20156;-90
2021/10/30 01:51:58;;;;;;;50.73;15.93;;;;;;;;;;6182103;23;20172;-91
2021/10/30 01:55:04;;;;;;;32.83;16.03;;;;;;;;;;6181971;23;20156;-89
2021/10/30 01:58:09;;;;;;;40.10;16.70;;;;;;;;;;6182977;23;20183;-89
2021/10/30 02:01:18;;;;;;;92.00;17.43;;;;;;;;;;6183671;23;20176;-90
2021/10/30 02:04:23;;;;;;;53.93;16.40;;;;;;;;;;6182686;23;20188;-91
2021/10/30 02:07:29;;;;;;;44.77;16.83;;;;;;;;;;6182839;23;20191;-89
2021/10/30 02:10:34;;;;;;;54.83;17.57;;;;;;;;;;6182774;23;20244;-91
2021/10/30 02:13:40;;;;;;;70.83;18.13;;;;;;;;;;6180611;23;20171;-90
2021/10/30 02:17:23;;;;;;;56.70;18.60;;;;;;;;;;6182150;23;20196;-89
2021/10/30 02:20:28;;;;;;;59.53;18.33;;;;;;;;;;6181585;23;20298;-92
2021/10/30 02:23:35;;;;;;;103.13;18.83;;;;;;;;;;6182010;23;20176;-90
2021/10/30 02:26:40;;;;;;;61.77;17.87;;;;;;;;;;6181073;23;20183;-90
2021/10/30 02:29:46;;;;;;;61.50;19.00;;;;;;;;;;6179062;23;20287;-91
2021/10/30 02:32:52;;;;;;;82.17;19.53;;;;;;;;;;6179176;23;20700;-91
2021/10/30 02:35:57;;;;;;;64.20;20.10;;;;;;;;;;6178890;23;20603;-90
2021/10/30 02:39:04;;;;;;;68.03;19.77;;;;;;;;;;6179358;23;20224;-90
2021/10/30 02:42:09;;;;;;;93.77;19.90;;;;;;;;;;6178881;23;20280;-91
2021/10/30 02:45:14;;;;;;;71.43;19.20;;;;;;;;;;6178177;23;20180;-92
2021/10/30 02:48:20;;;;;;;56.87;19.00;;;;;;;;;;6179674;23;20248;-89
2021/10/30 02:51:28;;;;;;;52.33;16.87;;;;;;;;;;6180016;23;20191;-91
2021/10/30 02:54:35;;;;;;;64.77;17.13;;;;;;;;;;6179369;23;20248;-92
2021/10/30 02:57:46;;;;;;;54.20;16.83;;;;;;;;;;6180653;23;20283;-91
2021/10/30 03:00:51;;;;;;;52.17;17.50;;;;;;;;;;6180932;23;20172;-90
2021/10/30 03:03:56;;;;;;;103.93;19.23;;;;;;;;;;6179729;23;20188;-88
2021/10/30 03:07:01;;;;;;;98.17;19.47;;;;;;;;;;6180262;23;20310;-92
2021/10/30 03:10:09;;;;;;;79.43;19.60;;;;;;;;;;6182556;23;20228;-93
2021/10/30 03:13:14;;;;;;;50.33;19.37;;;;;;;;;;6182746;23;20164;-90
2021/10/30 03:16:25;;;;;;;97.13;20.50;;;;;;;;;;6183123;23;20223;-90
2021/10/30 03:19:30;;;;;;;56.90;18.60;;;;;;;;;;6181491;23;20200;-91
2021/10/30 03:22:36;;;;;;;48.07;16.57;;;;;;;;;;6182135;23;20235;-91
2021/10/30 03:25:43;;;;;;;53.63;15.97;;;;;;;;;;6180674;23;20354;-88
2021/10/30 03:28:48;;;;;;;82.60;17.97;;;;;;;;;;6181819;23;20263;-92
2021/10/30 03:31:53;;;;;;;61.00;16.87;;;;;;;;;;6181974;23;20671;-91
2021/10/30 03:34:59;;;;;;;51.70;16.73;;;;;;;;;;6181998;23;20196;-93
2021/10/30 03:38:04;;;;;;;34.30;15.10;;;;;;;;;;6181226;23;20200;-90
2021/10/30 03:41:11;;;;;;;60.53;15.80;;;;;;;;;;6181613;23;20222;-90
2021/10/30 03:44:16;;;;;;;53.60;15.87;;;;;;;;;;6180549;23;20651;-92
2021/10/30 03:47:22;;;;;;;55.67;16.27;;;;;;;;;;6180629;23;20176;-91
2021/10/30 03:50:27;;;;;;;53.87;17.43;;;;;;;;;;6180526;23;20186;-91
2021/10/30 03:53:32;;;;;;;92.00;16.80;;;;;;;;;;6180322;23;20175;-89
2021/10/30 03:56:38;;;;;;;68.33;17.63;;;;;;;;;;6179732;23;20167;-91
2021/10/30 03:59:43;;;;;;;57.00;17.43;;;;;;;;;;6180083;23;20254;-89
2021/10/30 04:02:48;;;;;;;53.47;17.03;;;;;;;;;;6181629;23;20248;-91
2021/10/30 04:05:53;;;;;;;58.73;17.77;;;;;;;;;;6181069;23;20248;-91
2021/10/30 04:08:59;;;;;;;46.57;16.97;;;;;;;;;;6181157;23;20179;-90
2021/10/30 04:12:06;;;;;;;51.63;17.10;;;;;;;;;;6181883;23;20288;-91
2021/10/30 04:15:14;;;;;;;49.40;16.47;;;;;;;;;;6177919;23;20183;-91
2021/10/30 04:18:20;;;;;;;53.93;16.63;;;;;;;;;;6179209;23;20303;-91
2021/10/30 04:21:25;;;;;;;46.80;18.50;;;;;;;;;;6176636;23;20171;-91
2021/10/30 04:24:31;;;;;;;55.90;17.60;;;;;;;;;;6178872;23;20196;-91
2021/10/30 04:27:38;;;;;;;44.27;15.37;;;;;;;;;;6179439;23;20220;-91
2021/10/30 04:30:43;;;;;;;59.53;16.50;;;;;;;;;;6180124;23;20167;-90
2021/10/30 04:33:48;;;;;;;33.77;16.17;;;;;;;;;;6180596;23;20611;-91
2021/10/30 04:36:56;;;;;;;71.00;15.93;;;;;;;;;;6181611;23;20167;-91
2021/10/30 04:40:02;;;;;;;47.17;15.97;;;;;;;;;;6181205;23;20237;-91
2021/10/30 04:43:09;;;;;;;41.03;16.40;;;;;;;;;;6180197;23;20175;-91
2021/10/30 04:46:19;;;;;;;43.17;16.80;;;;;;;;;;6180046;23;20168;-91
2021/10/30 04:49:24;;;;;;;147.73;16.83;;;;;;;;;;6179671;23;20236;-90
2021/10/30 04:52:30;;;;;;;52.73;17.07;;;;;;;;;;6180496;23;20174;-91
2021/10/30 04:55:36;;;;;;;35.97;15.87;;;;;;;;;;6178626;23;20176;-93
2021/10/30 04:58:44;;;;;;;45.33;15.20;;;;;;;;;;6179768;23;20207;-92
2021/10/30 05:01:50;;;;;;;43.03;16.43;;;;;;;;;;6181018;23;20171;-90
2021/10/30 05:04:55;;;;;;;34.43;16.90;;;;;;;;;;6180121;23;20203;-93
2021/10/30 05:08:00;;;;;;;40.03;15.97;;;;;;;;;;6180612;23;20172;-90
2021/10/30 05:11:07;;;;;;;41.33;14.73;;;;;;;;;;6182420;23;20172;-90
2021/10/30 05:14:15;;;;;;;33.27;15.43;;;;;;;;;;6181626;23;20167;-89
2021/10/30 05:17:20;;;;;;;38.20;16.07;;;;;;;;;;6181313;23;20195;-90
2021/10/30 05:20:25;;;;;;;35.97;15.20;;;;;;;;;;6181115;23;20195;-89
2021/10/30 05:23:30;;;;;;;55.37;16.07;;;;;;;;;;6182230;23;20171;-91
2021/10/30 05:26:35;;;;;;;39.93;14.97;;;;;;;;;;6181603;23;20163;-89
2021/10/30 05:29:42;;;;;;;41.53;16.07;;;;;;;;;;6179788;23;20171;-90
2021/10/30 05:32:48;;;;;;;36.77;14.93;;;;;;;;;;6180685;23;20615;-90
2021/10/30 05:36:13;;;;;;;27.90;13.87;;;;;;;;;;6198458;23;20168;-90
2021/10/30 05:39:26;;;;;;;36.80;14.07;;;;;;;;;;6180485;23;20195;-90
2021/10/30 05:42:31;;;;;;;33.73;15.23;;;;;;;;;;6180165;23;20167;-89
2021/10/30 05:45:40;;;;;;;30.73;13.30;;;;;;;;;;6181058;23;20256;-88
2021/10/30 05:48:46;;;;;;;37.87;13.20;;;;;;;;;;6181504;23;20172;-90
2021/10/30 05:51:51;;;;;;;30.63;13.17;;;;;;;;;;6180282;23;20242;-90
2021/10/30 05:54:56;;;;;;;34.40;13.53;;;;;;;;;;6180388;23;20176;-90
2021/10/30 05:58:02;;;;;;;32.10;13.67;;;;;;;;;;6180139;23;20196;-90
2021/10/30 06:01:08;;;;;;;25.70;13.23;;;;;;;;;;6180706;23;20262;-90
2021/10/30 06:04:14;;;;;;;78.23;15.77;;;;;;;;;;6179511;23;20175;-89
2021/10/30 06:07:19;;;;;;;90.80;16.37;;;;;;;;;;6179680;23;20191;-92
2021/10/30 06:10:24;;;;;;;49.27;16.27;;;;;;;;;;6178018;23;20167;-90
2021/10/30 06:13:29;;;;;;;53.50;15.23;;;;;;;;;;6180111;23;20179;-90
2021/10/30 06:16:37;;;;;;;50.57;15.40;;;;;;;;;;6179583;23;20502;-91
2021/10/30 06:19:42;;;;;;;49.90;16.47;;;;;;;;;;6180475;23;20211;-92
2021/10/30 06:22:47;;;;;;;105.00;17.83;;;;;;;;;;6179656;23;20172;-90
2021/10/30 06:25:53;;;;;;;66.20;16.17;;;;;;;;;;6178207;23;20299;-87
2021/10/30 06:29:02;;;;;;;43.50;15.60;;;;;;;;;;6181861;23;20176;-89
2021/10/30 06:32:09;;;;;;;55.70;15.33;;;;;;;;;;6179746;23;20179;-87
2021/10/30 06:35:14;;;;;;;33.90;15.67;;;;;;;;;;6181147;23;20240;-90
2021/10/30 06:38:19;;;;;;;49.23;16.57;;;;;;;;;;6179591;23;20199;-90
2021/10/30 06:41:24;;;;;;;38.00;15.33;;;;;;;;;;6182401;23;20184;-91
2021/10/30 06:44:29;;;;;;;46.17;14.97;;;;;;;;;;6181274;23;20179;-88
2021/10/30 06:47:38;;;;;;;46.20;16.20;;;;;;;;;;6183061;23;20219;-90
2021/10/30 06:50:46;;;;;;;43.30;15.30;;;;;;;;;;6183997;23;20486;-91
2021/10/30 06:53:51;;;;;;;36.60;14.67;;;;;;;;;;6185047;23;20172;-91
2021/10/30 06:56:56;;;;;;;38.53;15.30;;;;;;;;;;6183266;23;20175;-90
2021/10/30 07:00:01;;;;;;;34.23;15.43;;;;;;;;;;6181936;23;20215;-91
2021/10/30 07:03:09;;;;;;;41.23;16.10;;;;;;;;;;6182207;23;20174;-90
2021/10/30 07:06:15;;;;;;;80.30;16.90;;;;;;;;;;6182537;23;20176;-91
2021/10/30 07:09:20;;;;;;;38.90;16.90;;;;;;;;;;6181584;23;20184;-91
2021/10/30 07:12:26;;;;;;;62.77;16.57;;;;;;;;;;6181339;23;20510;-89
2021/10/30 07:15:31;;;;;;;82.93;18.07;;;;;;;;;;6182341;23;20173;-91
2021/10/30 07:18:39;;;;;;;45.23;17.13;;;;;;;;;;6202496;23;20281;-89
2021/10/30 07:21:45;;;;;;;38.03;16.90;;;;;;;;;;6183937;23;20221;-90
2021/10/30 07:24:50;;;;;;;75.93;16.87;;;;;;;;;;6184543;23;20289;-91
2021/10/30 07:27:56;;;;;;;43.13;16.80;;;;;;;;;;6183389;23;20237;-91
2021/10/30 07:31:02;;;;;;;41.13;17.70;;;;;;;;;;6183020;23;20179;-89
2021/10/30 07:34:08;;;;;;;42.93;16.53;;;;;;;;;;6183564;23;20184;-91
2021/10/30 07:37:14;;;;;;;55.27;16.90;;;;;;;;;;6182812;23;20176;-91
2021/10/30 07:40:20;;;;;;;41.40;16.83;;;;;;;;;;6187153;23;20549;-90
2021/10/30 07:43:25;;;;;;;37.93;16.40;;;;;;;;;;6184858;23;20172;-91
2021/10/30 07:46:31;;;;;;;38.97;17.40;;;;;;;;;;6183031;23;20260;-90
2021/10/30 07:49:38;;;;;;;34.60;16.60;;;;;;;;;;6185193;23;20610;-93
2021/10/30 07:52:43;;;;;;;39.37;16.93;;;;;;;;;;6183775;23;20250;-90
2021/10/30 07:55:49;;;;;;;47.47;16.47;;;;;;;;;;6182480;23;20276;-91
2021/10/30 07:58:55;;;;;;;41.27;17.03;;;;;;;;;;6184790;23;20196;-90
2021/10/30 08:02:04;;;;;;;35.07;17.37;;;;;;;;;;6187882;23;20176;-91
2021/10/30 08:05:12;;;;;;;37.87;16.17;;;;;;;;;;6167307;23;20172;-91
2021/10/30 08:08:20;;;;;;;40.67;17.13;;;;;;;;;;6182105;23;20227;-90
2021/10/30 08:11:28;;;;;;;34.67;16.63;;;;;;;;;;6182310;23;20456;-92
2021/10/30 08:14:33;;;;;;;37.80;17.97;;;;;;;;;;6184934;23;20245;-90
2021/10/30 08:17:39;;;;;;;38.27;16.07;;;;;;;;;;6183809;23;20183;-90
2021/10/30 08:20:46;;;;;;;45.63;19.43;;;;;;;;;;6182564;23;20169;-89
2021/10/30 08:23:52;;;;;;;39.00;18.13;;;;;;;;;;6182381;23;20175;-90
2021/10/30 08:26:59;;;;;;;35.07;16.57;;;;;;;;;;6185548;23;20167;-89
2021/10/30 08:30:05;;;;;;;42.93;18.13;;;;;;;;;;6183931;23;20176;-90
2021/10/30 08:33:12;;;;;;;44.03;20.53;;;;;;;;;;6185065;23;20654;-90
2021/10/30 08:36:20;;;;;;;38.93;18.30;;;;;;;;;;6185186;23;20180;-90
2021/10/30 08:39:26;;;;;;;37.00;17.37;;;;;;;;;;6185414;23;20183;-88
2021/10/30 08:42:33;;;;;;;45.43;19.87;;;;;;;;;;6184851;23;20294;-92
2021/10/30 08:45:38;;;;;;;40.20;18.80;;;;;;;;;;6185730;23;20159;-90
2021/10/30 08:48:45;;;;;;;43.23;18.30;;;;;;;;;;6184841;23;20233;-90
2021/10/30 08:51:52;;;;;;;43.67;19.07;;;;;;;;;;6185099;23;20661;-88
2021/10/30 08:54:57;;;;;;;42.00;19.20;;;;;;;;;;6182595;23;20165;-92
2021/10/30 08:58:07;;;;;;;45.60;19.63;;;;;;;;;;6182861;23;20172;-93
2021/10/30 09:01:12;;;;;;;47.60;20.30;;;;;;;;;;6182176;23;20164;-91
2021/10/30 09:04:18;;;;;;;41.80;19.93;;;;;;;;;;6184393;23;20238;-92
2021/10/30 09:07:29;;;;;;;85.83;35.30;;;;;;;;;;6185934;23;20171;-92
2021/10/30 09:10:37;;;;;;;44.40;22.07;;;;;;;;;;6185893;23;20187;-90
2021/10/30 09:13:43;;;;;;;40.43;19.50;;;;;;;;;;6184330;23;20171;-90
2021/10/30 09:17:04;;;;;;;41.30;19.43;;;;;;;;;;6182744;23;20236;-89
2021/10/30 09:20:21;;;;;;;41.33;18.53;;;;;;;;;;6186075;23;20534;-90
2021/10/30 09:23:42;;;;;;;35.30;18.30;;;;;;;;;;6185785;23;20215;-90
2021/10/30 09:26:53;;;;;;;33.63;17.30;;;;;;;;;;6183882;23;20172;-88
2021/10/30 09:29:59;;;;;;;36.93;18.10;;;;;;;;;;6184361;23;20592;-91
2021/10/30 09:33:05;;;;;;;77.53;31.00;;;;;;;;;;6185674;23;20159;-90
2021/10/30 11:53:47;;;;;;;44.50;21.60;;;;;;;;;;6185479;23;20632;-92
2021/10/30 11:56:54;;;;;;;46.58;22.35;;;;;;;;;;6183184;23;20239;-91
2021/10/30 12:03:33;;;;;;;40.75;20.73;;;;;;;;;;6182638;23;20620;-92
2021/10/30 12:06:42;;;;;;;39.38;21.55;;;;;;;;;;6183534;23;20171;-91
2021/10/30 12:09:50;;;;;;;36.72;19.15;;;;;;;;;;6184181;23;20180;-92
2021/10/30 12:13:07;;;;;;;35.97;19.00;;;;;;;;;;6184749;23;20175;-92
2021/10/30 12:16:14;;;;;;;38.05;19.75;;;;;;;;;;6182291;23;20172;-91
2021/10/30 12:19:29;;;;;;;41.47;22.98;;;;;;;;;;6182606;23;20195;-92
2021/10/30 12:22:38;;;;;;;38.30;19.85;;;;;;;;;;6186722;23;20311;-92
2021/10/30 12:25:45;;;;;;;42.88;20.70;;;;;;;;;;6184615;23;20333;-89
2021/10/30 12:28:50;;;;;;;34.78;19.33;;;;;;;;;;6184357;23;20179;-89
2021/10/30 12:32:00;;;;;;;36.42;18.98;;;;;;;;;;6183837;23;20195;-92
2021/10/30 12:35:06;;;;;;;34.65;19.08;;;;;;;;;;6185111;23;20196;-90
2021/10/30 12:38:13;;;;;;;35.53;18.67;;;;;;;;;;6182838;23;20176;-91
2021/10/30 12:41:20;;;;;;;39.40;19.30;;;;;;;;;;6181702;23;20168;-91
2021/10/30 12:44:29;;;;;;;38.13;18.88;;;;;;;;;;6185825;23;20300;-91
2021/10/30 12:47:38;;;;;;;41.65;18.73;;;;;;;;;;6183670;23;20472;-89
2021/10/30 12:50:44;;;;;;;34.13;17.65;;;;;;;;;;6185450;23;20196;-90
2021/10/30 12:53:53;;;;;;;32.55;17.63;;;;;;;;;;6201253;23;20238;-91
2021/10/30 13:00:40;;;;;;;35.60;18.27;;;;;;;;;;6183903;23;20257;-91
2021/10/30 13:03:45;;;;;;;38.72;18.52;;;;;;;;;;6183359;23;20187;-92
2021/10/30 13:06:59;;;;;;;38.40;18.63;;;;;;;;;;6181494;23;20168;-90
2021/10/30 13:10:06;;;;;;;33.08;17.80;;;;;;;;;;6182974;23;20163;-91
2021/10/30 13:13:12;;;;;;;32.65;16.50;;;;;;;;;;6180327;23;20175;-89
2021/10/30 13:16:20;;;;;;;33.83;16.55;;;;;;;;;;6184454;23;20171;-90
2021/10/30 13:19:26;;;;;;;28.80;14.98;;;;;;;;;;6187326;23;20223;-88
2021/10/30 13:22:36;;;;;;;31.85;15.95;;;;;;;;;;6185170;23;20180;-90
2021/10/30 13:25:42;;;;;;;27.95;13.35;;;;;;;;;;6185185;23;20662;-88
2021/10/30 13:28:52;;;;;;;26.60;14.52;;;;;;;;;;6183706;23;20159;-88
2021/10/30 13:31:58;;;;;;;27.52;13.43;;;;;;;;;;6183972;23;20171;-89
2021/10/30 13:35:04;;;;;;;23.98;13.00;;;;;;;;;;6183074;23;20227;-91
2021/10/30 13:38:09;;;;;;;26.85;13.45;;;;;;;;;;6181706;23;20179;-89
2021/10/30 13:41:15;;;;;;;30.02;13.93;;;;;;;;;;6182243;23;20215;-91
2021/10/30 13:44:21;;;;;;;27.25;14.00;;;;;;;;;;6179600;23;20179;-94
2021/10/30 13:47:28;;;;;;;28.25;14.43;;;;;;;;;;6181533;23;20163;-89
2021/10/30 13:50:33;;;;;;;26.70;13.43;;;;;;;;;;6181043;23;20379;-93
2021/10/30 13:53:39;;;;;;;27.25;13.65;;;;;;;;;;6182844;23;20260;-88
2021/10/30 13:56:46;;;;;;;32.10;14.35;;;;;;;;;;6181893;23;20167;-89
2021/10/30 14:00:00;;;;;;;25.88;14.02;;;;;;;;;;6183441;23;20191;-91
2021/10/30 14:03:06;;;;;;;26.38;13.70;;;;;;;;;;6184322;23;20176;-91
2021/10/30 14:06:16;;;;;;;26.48;14.23;;;;;;;;;;6182873;23;20296;-90
2021/10/30 14:09:22;;;;;;;25.65;13.93;;;;;;;;;;6182487;23;20168;-91
2021/10/30 14:12:32;;;;;;;32.15;15.27;;;;;;;;;;6182093;23;20567;-90
2021/10/30 14:15:38;;;;;;;27.23;13.93;;;;;;;;;;6182726;23;20167;-91
2021/10/30 14:18:45;;;;;;;32.50;15.35;;;;;;;;;;6185456;23;20159;-90
2021/10/30 14:21:50;;;;;;;31.40;14.80;;;;;;;;;;6183218;23;20168;-91
2021/10/30 14:24:56;;;;;;;28.13;14.40;;;;;;;;;;6180512;23;20484;-91
2021/10/30 14:28:02;;;;;;;28.63;14.60;;;;;;;;;;6179405;23;20223;-90
2021/10/30 14:31:09;;;;;;;29.88;15.18;;;;;;;;;;6179270;23;20588;-90
2021/10/30 14:34:14;;;;;;;30.38;15.30;;;;;;;;;;6178448;23;20180;-89
2021/10/30 14:37:19;;;;;;;34.83;16.65;;;;;;;;;;6178348;23;20187;-90
2021/10/30 14:40:37;;;;;;;29.52;15.40;;;;;;;;;;6177952;23;20200;-91
2021/10/30 14:43:42;;;;;;;37.90;15.25;;;;;;;;;;6178234;23;20175;-90
2021/10/30 14:46:51;;;;;;;33.03;16.65;;;;;;;;;;6178702;23;20579;-90
2021/10/30 14:49:56;;;;;;;31.13;15.25;;;;;;;;;;6179603;23;20172;-91
2021/10/30 14:56:23;;;;;;;34.15;16.95;;;;;;;;;;6182324;23;20164;-92
2021/10/30 14:59:28;;;;;;;36.30;17.77;;;;;;;;;;6180387;23;20195;-92
2021/10/30 15:02:35;;;;;;;33.92;18.17;;;;;;;;;;6183299;23;20164;-90
2021/10/30 15:05:44;;;;;;;36.15;18.17;;;;;;;;;;6183064;23;20209;-90
2021/10/30 15:08:49;;;;;;;34.08;18.70;;;;;;;;;;6181916;23;20179;-89
2021/10/30 15:11:54;;;;;;;36.65;18.63;;;;;;;;;;6182962;23;20211;-86
2021/10/30 15:15:01;;;;;;;41.40;20.20;;;;;;;;;;6186285;23;20175;-90
2021/10/30 15:18:07;;;;;;;37.83;19.73;;;;;;;;;;6185225;23;20171;-90
2021/10/30 15:21:14;;;;;;;40.30;20.75;;;;;;;;;;6183026;23;20258;-89
2021/10/30 15:24:31;;;;;;;47.58;22.50;;;;;;;;;;6184712;23;20231;-91
2021/10/30 15:27:36;;;;;;;44.80;22.45;;;;;;;;;;6167600;23;20196;-92
2021/10/30 15:30:42;;;;;;;42.95;21.55;;;;;;;;;;6184975;23;20171;-90
2021/10/30 15:37:10;;;;;;;59.42;25.70;;;;;;;;;;6185133;23;20274;-92
2021/10/30 15:40:16;;;;;;;65.85;28.67;;;;;;;;;;6182163;23;20196;-91
2021/10/30 15:43:21;;;;;;;65.53;27.58;;;;;;;;;;6183565;23;20628;-90
2021/10/30 15:46:27;;;;;;;67.25;29.80;;;;;;;;;;6182178;23;20168;-90
2021/10/30 15:49:36;;;;;;;51.50;25.30;;;;;;;;;;6183025;23;20171;-89
2021/10/30 15:52:41;;;;;;;48.60;23.92;;;;;;;;;;6184476;23;20245;-90
2021/10/30 15:55:46;;;;;;;50.47;24.05;;;;;;;;;;6181712;23;20179;-89
2021/10/30 15:58:52;;;;;;;49.35;24.02;;;;;;;;;;6182049;23;20182;-91
2021/10/30 16:01:58;;;;;;;56.38;25.50;;;;;;;;;;6180701;23;20167;-91
2021/10/30 16:05:30;;;;;;;51.40;23.45;;;;;;;;;;6181169;23;20172;-91
2021/10/30 16:08:37;;;;;;;46.47;21.98;;;;;;;;;;6180456;23;20168;-91
2021/10/30 16:11:42;;;;;;;48.72;23.45;;;;;;;;;;6181221;23;20162;-90
2021/10/30 16:14:47;;;;;;;46.70;22.48;;;;;;;;;;6180949;23;20191;-91
2021/10/30 16:18:01;;;;;;;50.20;24.02;;;;;;;;;;6183514;23;20264;-88
2021/10/30 16:24:28;;;;;;;102.28;40.90;;;;;;;;;;6180780;23;20224;-90
2021/10/30 16:27:33;;;;;;;107.60;43.13;;;;;;;;;;6182094;23;20223;-91
2021/10/30 16:30:39;;;;;;;77.38;31.00;;;;;;;;;;6181626;23;20298;-90
2021/10/30 16:33:45;;;;;;;72.50;35.67;;;;;;;;;;6182970;23;20247;-89
2021/10/30 16:36:50;;;;;;;59.35;27.23;;;;;;;;;;6182497;23;20164;-90
2021/10/30 16:39:57;;;;;;;60.30;26.38;;;;;;;;;;6179103;23;20179;-92
2021/10/30 16:43:03;;;;;;;63.42;29.98;;;;;;;;;;6180969;23;20176;-91
2021/10/30 16:46:09;;;;;;;63.47;28.45;;;;;;;;;;6180255;23;20183;-91
2021/10/30 16:49:16;;;;;;;63.35;30.38;;;;;;;;;;6180303;23;20172;-91
2021/10/30 16:52:23;;;;;;;66.32;28.13;;;;;;;;;;6180388;23;20155;-90
2021/10/30 16:55:31;;;;;;;58.13;26.85;;;;;;;;;;6181393;23;20229;-92
2021/10/30 16:58:36;;;;;;;56.90;28.23;;;;;;;;;;6181396;23;20640;-92
2021/10/30 17:01:41;;;;;;;57.83;27.25;;;;;;;;;;6182079;23;20214;-91
2021/10/30 17:04:46;;;;;;;76.07;31.38;;;;;;;;;;6183173;23;20175;-91
2021/10/30 17:07:52;;;;;;;71.60;29.60;;;;;;;;;;6183757;23;20159;-89
2021/10/30 17:11:00;;;;;;;62.85;29.17;;;;;;;;;;6182623;23;20163;-90
2021/10/30 17:14:07;;;;;;;63.72;27.38;;;;;;;;;;6181148;23;20167;-91
2021/10/30 17:21:10;;;;;;;64.95;28.08;;;;;;;;;;6184045;23;20223;-90
2021/10/30 17:24:15;;;;;;;61.63;27.92;;;;;;;;;;6182194;23;20240;-91
2021/10/30 17:27:22;;;;;;;67.10;31.05;;;;;;;;;;6185929;23;20183;-89
2021/10/30 17:30:28;;;;;;;63.13;29.02;;;;;;;;;;6182350;23;20212;-90
2021/10/30 17:33:34;;;;;;;63.92;29.60;;;;;;;;;;6182228;23;20215;-90
2021/10/30 17:36:39;;;;;;;61.92;28.88;;;;;;;;;;6182171;23;20192;-89
2021/10/30 17:39:45;;;;;;;61.60;30.25;;;;;;;;;;6181657;23;20171;-90
2021/10/30 17:42:51;;;;;;;63.70;28.60;;;;;;;;;;6180821;23;20168;-91
2021/10/30 17:45:56;;;;;;;60.53;29.48;;;;;;;;;;6181170;23;20185;-87
2021/10/30 17:49:02;;;;;;;62.70;29.17;;;;;;;;;;6180050;23;20175;-90
2021/10/30 17:52:09;;;;;;;70.03;31.65;;;;;;;;;;6181891;23;20162;-89
2021/10/30 17:55:14;;;;;;;76.35;34.65;;;;;;;;;;6180689;23;20175;-89
2021/10/30 17:58:22;;;;;;;60.92;28.20;;;;;;;;;;6182756;23;20275;-91
2021/10/30 18:01:28;;;;;;;62.85;29.67;;;;;;;;;;6182002;23;20196;-90
2021/10/30 18:04:34;;;;;;;61.13;30.23;;;;;;;;;;6181242;23;20171;-88
2021/10/30 18:07:39;;;;;;;63.53;27.65;;;;;;;;;;6181778;23;20187;-91
2021/10/30 18:10:45;;;;;;;58.58;27.08;;;;;;;;;;6180815;23;20184;-90
2021/10/30 18:13:52;;;;;;;60.77;27.50;;;;;;;;;;6181890;23;20622;-91
2021/10/30 18:16:58;;;;;;;59.05;27.05;;;;;;;;;;6180164;23;20250;-91
2021/10/30 18:20:07;;;;;;;60.38;26.73;;;;;;;;;;6179353;23;20254;-89
2021/10/30 18:23:12;;;;;;;49.75;24.65;;;;;;;;;;6181282;23;20171;-91
2021/10/30 18:26:17;;;;;;;49.38;24.42;;;;;;;;;;6182320;23;20179;-91
2021/10/30 18:29:24;;;;;;;51.90;24.98;;;;;;;;;;6184989;23;20288;-90
2021/10/30 18:32:29;;;;;;;49.75;25.65;;;;;;;;;;6180772;23;20163;-90
2021/10/30 18:35:35;;;;;;;56.58;26.17;;;;;;;;;;6183272;23;20291;-91
2021/10/30 18:38:41;;;;;;;55.75;25.67;;;;;;;;;;6183546;23;20180;-90
2021/10/30 18:41:46;;;;;;;65.20;30.23;;;;;;;;;;6183494;23;20195;-90
2021/10/30 18:44:54;;;;;;;55.45;26.30;;;;;;;;;;6185354;23;20171;-90
2021/10/30 18:47:59;;;;;;;54.47;25.15;;;;;;;;;;6183940;23;20176;-92
2021/10/30 18:51:06;;;;;;;50.20;24.75;;;;;;;;;;6182829;23;20243;-91
2021/10/30 18:54:11;;;;;;;49.92;24.27;;;;;;;;;;6182830;23;20244;-92
2021/10/30 18:57:16;;;;;;;48.85;24.55;;;;;;;;;;6184054;23;20168;-93
2021/10/30 19:00:23;;;;;;;100.57;47.03;;;;;;;;;;6183556;23;20221;-90
2021/10/30 19:03:30;;;;;;;59.00;25.70;;;;;;;;;;6182887;23;20280;-92
2021/10/30 19:10:55;;;;;;;57.47;25.50;;;;;;;;;;6202998;23;20209;-90
2021/10/30 19:14:04;;;;;;;55.97;26.73;;;;;;;;;;6184736;23;20172;-89
2021/10/30 19:17:11;;;;;;;60.07;27.93;;;;;;;;;;6201821;23;20231;-89
2021/10/30 19:20:18;;;;;;;58.77;26.80;;;;;;;;;;6183722;23;20223;-90
2021/10/30 19:23:25;;;;;;;51.93;24.60;;;;;;;;;;6185396;23;20654;-89
2021/10/30 19:26:29;;;;;;;56.23;26.17;;;;;;;;;;6185645;23;20195;-92
2021/10/30 19:29:34;;;;;;;105.93;33.53;;;;;;;;;;6185314;23;20167;-91
2021/10/30 19:32:41;;;;;;;63.53;26.67;;;;;;;;;;6184483;23;20615;-91
2021/10/30 19:35:47;;;;;;;58.90;26.03;;;;;;;;;;6184495;23;20175;-91
2021/10/30 19:38:53;;;;;;;75.40;33.37;;;;;;;;;;6183532;23;20172;-89
2021/10/30 19:41:58;;;;;;;69.17;28.57;;;;;;;;;;6182418;23;20194;-91
2021/10/30 19:45:04;;;;;;;62.73;29.37;;;;;;;;;;6181764;23;20206;-91
2021/10/30 19:48:11;;;;;;;60.07;28.47;;;;;;;;;;6182345;23;20180;-91
2021/10/30 19:51:19;;;;;;;64.03;29.23;;;;;;;;;;6180944;23;20164;-90
2021/10/30 19:54:25;;;;;;;58.17;26.97;;;;;;;;;;6182607;23;20215;-90
2021/10/30 19:57:30;;;;;;;54.20;24.77;;;;;;;;;;6182685;23;20175;-92
2021/10/30 20:00:37;;;;;;;57.27;26.73;;;;;;;;;;6182449;23;20175;-88
2021/10/30 20:03:45;;;;;;;56.10;26.10;;;;;;;;;;6185440;23;20171;-91
2021/10/30 20:06:50;;;;;;;71.00;31.47;;;;;;;;;;6183694;23;20192;-91
2021/10/30 20:09:56;;;;;;;60.20;29.17;;;;;;;;;;6184376;23;20304;-90
2021/10/30 20:13:01;;;;;;;66.00;30.00;;;;;;;;;;6182304;23;20623;-91
2021/10/30 20:16:08;;;;;;;63.88;29.65;;;;;;;;;;6182812;23;20159;-90
2021/10/30 20:19:19;;;;;;;65.90;29.47;;;;;;;;;;6181289;23;20191;-89
2021/10/30 20:22:26;;;;;;;60.87;27.60;;;;;;;;;;6181765;23;20202;-91
2021/10/30 20:25:31;;;;;;;59.05;28.45;;;;;;;;;;6183751;23;20198;-92
2021/10/30 20:28:37;;;;;;;71.67;30.70;;;;;;;;;;6184037;23;20846;-90
2021/10/30 20:31:42;;;;;;;53.67;25.85;;;;;;;;;;6185022;23;20607;-91
2021/10/30 20:34:49;;;;;;;72.03;28.80;;;;;;;;;;6182868;23;20192;-90
2021/10/30 20:37:56;;;;;;;65.07;29.03;;;;;;;;;;6183863;23;20207;-90
2021/10/30 20:41:02;;;;;;;81.27;31.80;;;;;;;;;;6184017;23;20625;-88
2021/10/30 20:44:09;;;;;;;96.23;38.30;;;;;;;;;;6183609;23;20271;-90
2021/10/30 20:47:15;;;;;;;79.07;34.33;;;;;;;;;;6182711;23;20167;-88
2021/10/30 20:50:23;;;;;;;76.80;31.63;;;;;;;;;;6183874;23;20264;-89